sensor_id;sensor_type;location;lat;lon;timestamp;P1;durP1;ratioP1;P2;durP2;ratioP2
15635;SDS011;7917;50.818;6.972;2023-05-07T00:00:06;30.40;;;19.38;;
15635;SDS011;7917;50.818;6.972;2023-05-07T00:02:33;23.67;;;17.33;;
15635;SDS011;7917;50.818;6.972;2023-05-07T00:05:00;27.48;;;17.20;;
15635;SDS011;7917;50.818;6.972;2023-05-07T00:07:28;25.35;;;16.88;;
15635;SDS011;7917;50.818;6.972;2023-05-07T00:09:54;22.73;;;15.70;;
15635;SDS011;7917;50.818;6.972;2023-05-07T00:12:22;20.83;;;14.50;;
15635;SDS011;7917;50.818;6.972;2023-05-07T00:14:48;18.65;;;13.70;;
15635;SDS011;7917;50.818;6.972;2023-05-07T00:17:15;19.98;;;11.70;;
15635;SDS011;7917;50.818;6.972;2023-05-07T00:19:42;12.63;;;9.48;;
15635;SDS011;7917;50.818;6.972;2023-05-07T00:22:09;14.10;;;8.70;;
15635;SDS011;7917;50.818;6.972;2023-05-07T00:24:35;10.45;;;8.30;;
15635;SDS011;7917;50.818;6.972;2023-05-07T00:27:02;10.05;;;7.15;;
15635;SDS011;7917;50.818;6.972;2023-05-07T00:29:30;13.32;;;7.70;;
15635;SDS011;7917;50.818;6.972;2023-05-07T00:31:56;13.20;;;7.32;;
15635;SDS011;7917;50.818;6.972;2023-05-07T00:34:23;12.98;;;7.03;;
15635;SDS011;7917;50.818;6.972;2023-05-07T00:36:50;10.65;;;6.60;;
15635;SDS011;7917;50.818;6.972;2023-05-07T00:39:16;13.23;;;6.88;;
15635;SDS011;7917;50.818;6.972;2023-05-07T00:41:43;10.07;;;6.82;;
15635;SDS011;7917;50.818;6.972;2023-05-07T00:44:13;8.15;;;6.63;;
15635;SDS011;7917;50.818;6.972;2023-05-07T00:46:41;11.10;;;7.50;;
15635;SDS011;7917;50.818;6.972;2023-05-07T00:49:09;10.95;;;6.85;;
15635;SDS011;7917;50.818;6.972;2023-05-07T00:51:41;10.05;;;7.20;;
15635;SDS011;7917;50.818;6.972;2023-05-07T00:54:11;8.13;;;7.22;;
15635;SDS011;7917;50.818;6.972;2023-05-07T00:56:39;9.55;;;7.38;;
15635;SDS011;7917;50.818;6.972;2023-05-07T00:59:06;9.90;;;7.18;;
15635;SDS011;7917;50.818;6.972;2023-05-07T01:01:32;12.05;;;7.28;;
15635;SDS011;7917;50.818;6.972;2023-05-07T01:04:00;10.30;;;6.90;;
15635;SDS011;7917;50.818;6.972;2023-05-07T01:06:27;8.88;;;7.60;;
15635;SDS011;7917;50.818;6.972;2023-05-07T01:08:56;8.38;;;7.07;;
15635;SDS011;7917;50.818;6.972;2023-05-07T01:11:23;9.80;;;7.50;;
15635;SDS011;7917;50.818;6.972;2023-05-07T01:13:51;13.88;;;7.65;;
15635;SDS011;7917;50.818;6.972;2023-05-07T01:16:18;9.13;;;6.55;;
15635;SDS011;7917;50.818;6.972;2023-05-07T01:18:45;7.97;;;6.97;;
15635;SDS011;7917;50.818;6.972;2023-05-07T01:21:14;7.35;;;6.53;;
15635;SDS011;7917;50.818;6.972;2023-05-07T01:23:44;12.32;;;6.63;;
15635;SDS011;7917;50.818;6.972;2023-05-07T01:26:11;8.00;;;6.30;;
15635;SDS011;7917;50.818;6.972;2023-05-07T01:28:38;11.50;;;6.03;;
15635;SDS011;7917;50.818;6.972;2023-05-07T01:31:05;9.82;;;5.93;;
15635;SDS011;7917;50.818;6.972;2023-05-07T01:33:33;8.15;;;6.20;;
15635;SDS011;7917;50.818;6.972;2023-05-07T01:36:02;7.68;;;6.22;;
15635;SDS011;7917;50.818;6.972;2023-05-07T01:38:31;8.93;;;6.25;;
15635;SDS011;7917;50.818;6.972;2023-05-07T01:40:59;10.13;;;6.47;;
15635;SDS011;7917;50.818;6.972;2023-05-07T01:43:27;7.90;;;5.85;;
15635;SDS011;7917;50.818;6.972;2023-05-07T01:45:54;9.73;;;6.30;;
15635;SDS011;7917;50.818;6.972;2023-05-07T01:48:23;6.03;;;5.40;;
15635;SDS011;7917;50.818;6.972;2023-05-07T01:50:50;8.35;;;5.93;;
15635;SDS011;7917;50.818;6.972;2023-05-07T01:53:18;6.80;;;5.53;;
15635;SDS011;7917;50.818;6.972;2023-05-07T01:55:44;7.38;;;6.25;;
15635;SDS011;7917;50.818;6.972;2023-05-07T01:58:12;9.13;;;6.47;;
15635;SDS011;7917;50.818;6.972;2023-05-07T02:00:39;8.23;;;6.57;;
15635;SDS011;7917;50.818;6.972;2023-05-07T02:03:06;8.20;;;5.70;;
15635;SDS011;7917;50.818;6.972;2023-05-07T02:05:33;7.03;;;6.32;;
15635;SDS011;7917;50.818;6.972;2023-05-07T02:07:59;6.65;;;5.60;;
15635;SDS011;7917;50.818;6.972;2023-05-07T02:10:26;7.75;;;6.50;;
15635;SDS011;7917;50.818;6.972;2023-05-07T02:12:53;8.10;;;6.10;;
15635;SDS011;7917;50.818;6.972;2023-05-07T02:15:22;7.20;;;5.72;;
15635;SDS011;7917;50.818;6.972;2023-05-07T02:17:58;8.05;;;6.22;;
15635;SDS011;7917;50.818;6.972;2023-05-07T02:20:26;8.85;;;6.47;;
15635;SDS011;7917;50.818;6.972;2023-05-07T02:22:53;8.05;;;6.28;;
15635;SDS011;7917;50.818;6.972;2023-05-07T02:25:31;8.10;;;6.75;;
15635;SDS011;7917;50.818;6.972;2023-05-07T02:27:58;9.77;;;6.03;;
15635;SDS011;7917;50.818;6.972;2023-05-07T02:30:26;8.93;;;6.55;;
15635;SDS011;7917;50.818;6.972;2023-05-07T02:32:56;9.32;;;6.68;;
15635;SDS011;7917;50.818;6.972;2023-05-07T02:35:23;9.57;;;6.45;;
15635;SDS011;7917;50.818;6.972;2023-05-07T02:37:50;15.18;;;8.38;;
15635;SDS011;7917;50.818;6.972;2023-05-07T02:40:17;9.48;;;7.60;;
15635;SDS011;7917;50.818;6.972;2023-05-07T02:42:44;9.02;;;7.75;;
15635;SDS011;7917;50.818;6.972;2023-05-07T02:45:10;11.95;;;8.15;;
15635;SDS011;7917;50.818;6.972;2023-05-07T02:47:38;10.18;;;7.40;;
15635;SDS011;7917;50.818;6.972;2023-05-07T02:50:05;12.65;;;9.65;;
15635;SDS011;7917;50.818;6.972;2023-05-07T02:52:33;14.88;;;9.20;;
15635;SDS011;7917;50.818;6.972;2023-05-07T02:55:00;11.43;;;9.75;;
15635;SDS011;7917;50.818;6.972;2023-05-07T02:57:28;10.13;;;8.77;;
15635;SDS011;7917;50.818;6.972;2023-05-07T02:59:55;15.80;;;9.45;;
15635;SDS011;7917;50.818;6.972;2023-05-07T03:02:23;10.15;;;8.80;;
15635;SDS011;7917;50.818;6.972;2023-05-07T03:04:51;11.38;;;9.57;;
15635;SDS011;7917;50.818;6.972;2023-05-07T03:07:18;11.20;;;8.88;;
15635;SDS011;7917;50.818;6.972;2023-05-07T03:09:47;11.02;;;9.48;;
15635;SDS011;7917;50.818;6.972;2023-05-07T03:12:14;9.07;;;7.60;;
15635;SDS011;7917;50.818;6.972;2023-05-07T03:14:41;10.02;;;8.13;;
15635;SDS011;7917;50.818;6.972;2023-05-07T03:17:11;8.70;;;7.80;;
15635;SDS011;7917;50.818;6.972;2023-05-07T03:19:37;8.77;;;7.32;;
15635;SDS011;7917;50.818;6.972;2023-05-07T03:22:05;8.63;;;7.25;;
15635;SDS011;7917;50.818;6.972;2023-05-07T03:24:32;9.00;;;7.40;;
15635;SDS011;7917;50.818;6.972;2023-05-07T03:26:58;9.73;;;7.90;;
15635;SDS011;7917;50.818;6.972;2023-05-07T03:29:26;8.73;;;7.28;;
15635;SDS011;7917;50.818;6.972;2023-05-07T03:31:52;11.40;;;6.63;;
15635;SDS011;7917;50.818;6.972;2023-05-07T03:34:19;8.77;;;6.57;;
15635;SDS011;7917;50.818;6.972;2023-05-07T03:36:47;9.65;;;6.70;;
15635;SDS011;7917;50.818;6.972;2023-05-07T03:39:14;8.57;;;6.45;;
15635;SDS011;7917;50.818;6.972;2023-05-07T03:41:41;14.23;;;6.03;;
15635;SDS011;7917;50.818;6.972;2023-05-07T03:44:08;7.18;;;6.45;;
15635;SDS011;7917;50.818;6.972;2023-05-07T03:46:34;7.32;;;6.53;;
15635;SDS011;7917;50.818;6.972;2023-05-07T03:49:01;11.30;;;6.68;;
15635;SDS011;7917;50.818;6.972;2023-05-07T03:54:35;8.18;;;6.30;;
15635;SDS011;7917;50.818;6.972;2023-05-07T03:57:05;6.50;;;5.90;;
15635;SDS011;7917;50.818;6.972;2023-05-07T03:59:33;7.40;;;5.93;;
15635;SDS011;7917;50.818;6.972;2023-05-07T04:01:59;10.07;;;7.07;;
15635;SDS011;7917;50.818;6.972;2023-05-07T04:04:26;7.95;;;6.30;;
15635;SDS011;7917;50.818;6.972;2023-05-07T04:06:57;11.95;;;6.40;;
15635;SDS011;7917;50.818;6.972;2023-05-07T04:09:25;8.57;;;6.47;;
15635;SDS011;7917;50.818;6.972;2023-05-07T04:11:53;8.13;;;6.78;;
15635;SDS011;7917;50.818;6.972;2023-05-07T04:14:22;8.13;;;6.35;;
15635;SDS011;7917;50.818;6.972;2023-05-07T04:16:52;6.85;;;6.15;;
15635;SDS011;7917;50.818;6.972;2023-05-07T04:19:19;7.05;;;5.72;;
15635;SDS011;7917;50.818;6.972;2023-05-07T04:21:45;7.88;;;6.22;;
15635;SDS011;7917;50.818;6.972;2023-05-07T04:24:12;6.85;;;6.00;;
15635;SDS011;7917;50.818;6.972;2023-05-07T04:26:40;8.45;;;6.05;;
15635;SDS011;7917;50.818;6.972;2023-05-07T04:29:08;9.93;;;6.15;;
15635;SDS011;7917;50.818;6.972;2023-05-07T04:31:34;6.47;;;5.65;;
15635;SDS011;7917;50.818;6.972;2023-05-07T04:34:01;7.78;;;6.22;;
15635;SDS011;7917;50.818;6.972;2023-05-07T04:36:28;7.20;;;5.88;;
15635;SDS011;7917;50.818;6.972;2023-05-07T04:38:54;9.68;;;6.00;;
15635;SDS011;7917;50.818;6.972;2023-05-07T04:41:21;10.10;;;6.40;;
15635;SDS011;7917;50.818;6.972;2023-05-07T04:43:48;7.78;;;5.93;;
15635;SDS011;7917;50.818;6.972;2023-05-07T04:46:15;10.05;;;5.80;;
15635;SDS011;7917;50.818;6.972;2023-05-07T04:48:42;8.02;;;5.75;;
15635;SDS011;7917;50.818;6.972;2023-05-07T04:51:08;11.90;;;6.00;;
15635;SDS011;7917;50.818;6.972;2023-05-07T04:53:35;7.25;;;5.53;;
15635;SDS011;7917;50.818;6.972;2023-05-07T04:56:02;6.45;;;5.15;;
15635;SDS011;7917;50.818;6.972;2023-05-07T04:58:29;6.68;;;4.78;;
15635;SDS011;7917;50.818;6.972;2023-05-07T05:00:56;8.15;;;5.10;;
15635;SDS011;7917;50.818;6.972;2023-05-07T05:03:24;5.85;;;5.10;;
15635;SDS011;7917;50.818;6.972;2023-05-07T05:05:51;7.05;;;5.60;;
15635;SDS011;7917;50.818;6.972;2023-05-07T05:08:18;6.80;;;5.70;;
15635;SDS011;7917;50.818;6.972;2023-05-07T05:10:44;6.75;;;5.32;;
15635;SDS011;7917;50.818;6.972;2023-05-07T05:13:13;7.55;;;5.80;;
15635;SDS011;7917;50.818;6.972;2023-05-07T05:15:40;7.25;;;5.40;;
15635;SDS011;7917;50.818;6.972;2023-05-07T05:18:07;6.28;;;4.72;;
15635;SDS011;7917;50.818;6.972;2023-05-07T05:20:34;5.07;;;4.38;;
15635;SDS011;7917;50.818;6.972;2023-05-07T05:23:01;8.23;;;4.50;;
15635;SDS011;7917;50.818;6.972;2023-05-07T05:25:28;6.97;;;4.35;;
15635;SDS011;7917;50.818;6.972;2023-05-07T05:27:55;6.35;;;4.13;;
15635;SDS011;7917;50.818;6.972;2023-05-07T05:30:21;6.10;;;3.70;;
15635;SDS011;7917;50.818;6.972;2023-05-07T05:32:48;4.28;;;3.88;;
15635;SDS011;7917;50.818;6.972;2023-05-07T05:35:16;6.00;;;4.13;;
15635;SDS011;7917;50.818;6.972;2023-05-07T05:37:46;5.00;;;3.97;;
15635;SDS011;7917;50.818;6.972;2023-05-07T05:40:13;6.25;;;3.90;;
15635;SDS011;7917;50.818;6.972;2023-05-07T05:42:40;4.43;;;3.90;;
15635;SDS011;7917;50.818;6.972;2023-05-07T05:45:07;4.80;;;3.90;;
15635;SDS011;7917;50.818;6.972;2023-05-07T05:47:37;7.30;;;3.65;;
15635;SDS011;7917;50.818;6.972;2023-05-07T05:50:05;6.35;;;3.65;;
15635;SDS011;7917;50.818;6.972;2023-05-07T05:52:32;6.25;;;3.70;;
15635;SDS011;7917;50.818;6.972;2023-05-07T05:55:00;5.57;;;3.40;;
15635;SDS011;7917;50.818;6.972;2023-05-07T05:57:26;3.88;;;3.25;;
15635;SDS011;7917;50.818;6.972;2023-05-07T05:59:53;4.00;;;3.05;;
15635;SDS011;7917;50.818;6.972;2023-05-07T06:02:20;3.80;;;3.40;;
15635;SDS011;7917;50.818;6.972;2023-05-07T06:04:46;3.72;;;3.20;;
15635;SDS011;7917;50.818;6.972;2023-05-07T06:07:13;3.45;;;3.10;;
15635;SDS011;7917;50.818;6.972;2023-05-07T06:09:40;3.40;;;2.80;;
15635;SDS011;7917;50.818;6.972;2023-05-07T06:12:07;5.53;;;2.95;;
15635;SDS011;7917;50.818;6.972;2023-05-07T06:14:37;6.20;;;3.45;;
15635;SDS011;7917;50.818;6.972;2023-05-07T06:17:05;3.35;;;2.90;;
15635;SDS011;7917;50.818;6.972;2023-05-07T06:19:32;3.88;;;2.53;;
15635;SDS011;7917;50.818;6.972;2023-05-07T06:21:59;3.10;;;2.80;;
15635;SDS011;7917;50.818;6.972;2023-05-07T06:24:27;3.22;;;2.70;;
15635;SDS011;7917;50.818;6.972;2023-05-07T06:26:57;5.43;;;2.55;;
15635;SDS011;7917;50.818;6.972;2023-05-07T06:29:25;3.60;;;2.90;;
15635;SDS011;7917;50.818;6.972;2023-05-07T06:31:52;4.18;;;2.55;;
15635;SDS011;7917;50.818;6.972;2023-05-07T06:34:18;4.13;;;2.65;;
15635;SDS011;7917;50.818;6.972;2023-05-07T06:36:45;2.95;;;2.67;;
15635;SDS011;7917;50.818;6.972;2023-05-07T06:39:12;4.10;;;2.30;;
15635;SDS011;7917;50.818;6.972;2023-05-07T06:41:38;5.35;;;2.63;;
15635;SDS011;7917;50.818;6.972;2023-05-07T06:44:05;4.47;;;2.35;;
15635;SDS011;7917;50.818;6.972;2023-05-07T06:46:33;3.83;;;2.50;;
15635;SDS011;7917;50.818;6.972;2023-05-07T06:48:59;2.53;;;2.33;;
15635;SDS011;7917;50.818;6.972;2023-05-07T06:51:26;2.92;;;2.63;;
15635;SDS011;7917;50.818;6.972;2023-05-07T06:53:52;2.45;;;2.25;;
15635;SDS011;7917;50.818;6.972;2023-05-07T06:56:19;2.95;;;2.20;;
15635;SDS011;7917;50.818;6.972;2023-05-07T06:58:46;4.43;;;2.55;;
15635;SDS011;7917;50.818;6.972;2023-05-07T07:01:13;2.67;;;2.40;;
15635;SDS011;7917;50.818;6.972;2023-05-07T07:03:41;5.57;;;2.53;;
15635;SDS011;7917;50.818;6.972;2023-05-07T07:06:07;3.95;;;2.67;;
15635;SDS011;7917;50.818;6.972;2023-05-07T07:08:37;3.35;;;2.63;;
15635;SDS011;7917;50.818;6.972;2023-05-07T07:11:04;4.78;;;2.60;;
15635;SDS011;7917;50.818;6.972;2023-05-07T07:13:31;4.72;;;2.58;;
15635;SDS011;7917;50.818;6.972;2023-05-07T07:15:58;4.43;;;2.83;;
15635;SDS011;7917;50.818;6.972;2023-05-07T07:18:26;5.63;;;3.00;;
15635;SDS011;7917;50.818;6.972;2023-05-07T07:20:53;4.40;;;2.75;;
15635;SDS011;7917;50.818;6.972;2023-05-07T07:23:20;3.42;;;2.40;;
15635;SDS011;7917;50.818;6.972;2023-05-07T07:25:47;7.05;;;3.03;;
15635;SDS011;7917;50.818;6.972;2023-05-07T07:28:16;8.88;;;3.28;;
15635;SDS011;7917;50.818;6.972;2023-05-07T07:30:47;4.05;;;2.72;;
15635;SDS011;7917;50.818;6.972;2023-05-07T07:33:13;6.28;;;2.67;;
15635;SDS011;7917;50.818;6.972;2023-05-07T07:35:40;4.75;;;2.70;;
15635;SDS011;7917;50.818;6.972;2023-05-07T07:38:08;5.95;;;2.45;;
15635;SDS011;7917;50.818;6.972;2023-05-07T07:40:34;3.25;;;2.28;;
15635;SDS011;7917;50.818;6.972;2023-05-07T07:43:02;3.47;;;2.58;;
15635;SDS011;7917;50.818;6.972;2023-05-07T07:45:30;4.55;;;2.90;;
15635;SDS011;7917;50.818;6.972;2023-05-07T07:47:59;4.30;;;3.13;;
15635;SDS011;7917;50.818;6.972;2023-05-07T07:50:27;6.28;;;2.60;;
15635;SDS011;7917;50.818;6.972;2023-05-07T07:52:53;4.53;;;2.55;;
15635;SDS011;7917;50.818;6.972;2023-05-07T07:55:22;2.75;;;2.40;;
15635;SDS011;7917;50.818;6.972;2023-05-07T07:57:49;2.53;;;2.17;;
15635;SDS011;7917;50.818;6.972;2023-05-07T08:00:23;5.07;;;2.70;;
15635;SDS011;7917;50.818;6.972;2023-05-07T08:02:50;4.30;;;2.53;;
15635;SDS011;7917;50.818;6.972;2023-05-07T08:05:17;3.28;;;2.30;;
15635;SDS011;7917;50.818;6.972;2023-05-07T08:07:44;2.75;;;2.22;;
15635;SDS011;7917;50.818;6.972;2023-05-07T08:10:13;3.38;;;2.38;;
15635;SDS011;7917;50.818;6.972;2023-05-07T08:12:47;3.80;;;2.50;;
15635;SDS011;7917;50.818;6.972;2023-05-07T08:15:14;3.10;;;2.67;;
15635;SDS011;7917;50.818;6.972;2023-05-07T08:17:41;4.97;;;2.40;;
15635;SDS011;7917;50.818;6.972;2023-05-07T08:20:09;3.90;;;3.05;;
15635;SDS011;7917;50.818;6.972;2023-05-07T08:22:36;4.32;;;2.95;;
15635;SDS011;7917;50.818;6.972;2023-05-07T08:25:02;4.00;;;2.80;;
15635;SDS011;7917;50.818;6.972;2023-05-07T08:27:30;3.10;;;2.55;;
15635;SDS011;7917;50.818;6.972;2023-05-07T08:29:57;4.40;;;2.80;;
15635;SDS011;7917;50.818;6.972;2023-05-07T08:32:44;3.88;;;2.30;;
15635;SDS011;7917;50.818;6.972;2023-05-07T08:35:11;7.85;;;3.20;;
15635;SDS011;7917;50.818;6.972;2023-05-07T08:37:37;3.03;;;2.50;;
15635;SDS011;7917;50.818;6.972;2023-05-07T08:40:10;3.28;;;2.50;;
15635;SDS011;7917;50.818;6.972;2023-05-07T08:42:37;3.85;;;2.47;;
15635;SDS011;7917;50.818;6.972;2023-05-07T08:45:07;4.93;;;2.60;;
15635;SDS011;7917;50.818;6.972;2023-05-07T08:47:40;3.03;;;2.08;;
15635;SDS011;7917;50.818;6.972;2023-05-07T08:50:09;5.70;;;2.20;;
15635;SDS011;7917;50.818;6.972;2023-05-07T08:52:36;2.88;;;2.17;;
15635;SDS011;7917;50.818;6.972;2023-05-07T08:55:05;5.20;;;2.30;;
15635;SDS011;7917;50.818;6.972;2023-05-07T08:57:32;3.58;;;2.20;;
15635;SDS011;7917;50.818;6.972;2023-05-07T09:00:13;2.38;;;2.13;;
15635;SDS011;7917;50.818;6.972;2023-05-07T09:02:40;2.47;;;2.05;;
15635;SDS011;7917;50.818;6.972;2023-05-07T09:05:07;3.72;;;2.50;;
15635;SDS011;7917;50.818;6.972;2023-05-07T09:07:34;2.58;;;2.13;;
15635;SDS011;7917;50.818;6.972;2023-05-07T09:10:01;4.78;;;2.13;;
15635;SDS011;7917;50.818;6.972;2023-05-07T09:12:29;5.07;;;2.05;;
15635;SDS011;7917;50.818;6.972;2023-05-07T09:14:56;4.38;;;1.80;;
15635;SDS011;7917;50.818;6.972;2023-05-07T09:17:23;3.03;;;1.92;;
15635;SDS011;7917;50.818;6.972;2023-05-07T09:19:50;2.83;;;2.05;;
15635;SDS011;7917;50.818;6.972;2023-05-07T09:22:18;3.47;;;2.00;;
15635;SDS011;7917;50.818;6.972;2023-05-07T09:24:47;3.65;;;2.25;;
15635;SDS011;7917;50.818;6.972;2023-05-07T09:27:14;4.57;;;2.03;;
15635;SDS011;7917;50.818;6.972;2023-05-07T09:29:41;3.13;;;2.30;;
15635;SDS011;7917;50.818;6.972;2023-05-07T09:32:09;4.07;;;2.38;;
15635;SDS011;7917;50.818;6.972;2023-05-07T09:34:36;3.47;;;2.10;;
15635;SDS011;7917;50.818;6.972;2023-05-07T09:37:03;3.53;;;1.90;;
15635;SDS011;7917;50.818;6.972;2023-05-07T09:39:40;9.48;;;2.50;;
15635;SDS011;7917;50.818;6.972;2023-05-07T09:42:08;6.50;;;1.98;;
15635;SDS011;7917;50.818;6.972;2023-05-07T09:44:35;4.45;;;2.17;;
15635;SDS011;7917;50.818;6.972;2023-05-07T09:47:03;2.20;;;2.00;;
15635;SDS011;7917;50.818;6.972;2023-05-07T09:49:33;2.88;;;2.22;;
15635;SDS011;7917;50.818;6.972;2023-05-07T09:52:02;2.80;;;2.22;;
15635;SDS011;7917;50.818;6.972;2023-05-07T09:54:32;3.05;;;1.95;;
15635;SDS011;7917;50.818;6.972;2023-05-07T09:57:01;3.47;;;2.28;;
15635;SDS011;7917;50.818;6.972;2023-05-07T09:59:29;3.60;;;1.85;;
15635;SDS011;7917;50.818;6.972;2023-05-07T10:01:58;2.95;;;1.90;;
15635;SDS011;7917;50.818;6.972;2023-05-07T10:04:27;2.25;;;2.00;;
15635;SDS011;7917;50.818;6.972;2023-05-07T10:06:54;2.65;;;1.90;;
15635;SDS011;7917;50.818;6.972;2023-05-07T10:09:28;1.67;;;1.50;;
15635;SDS011;7917;50.818;6.972;2023-05-07T10:11:55;2.10;;;1.90;;
15635;SDS011;7917;50.818;6.972;2023-05-07T10:14:26;6.00;;;2.42;;
15635;SDS011;7917;50.818;6.972;2023-05-07T10:16:57;2.95;;;2.17;;
15635;SDS011;7917;50.818;6.972;2023-05-07T10:19:25;2.58;;;1.88;;
15635;SDS011;7917;50.818;6.972;2023-05-07T10:21:54;4.25;;;2.10;;
15635;SDS011;7917;50.818;6.972;2023-05-07T10:24:25;2.92;;;1.95;;
15635;SDS011;7917;50.818;6.972;2023-05-07T10:26:53;1.85;;;1.63;;
15635;SDS011;7917;50.818;6.972;2023-05-07T10:29:26;2.10;;;1.90;;
15635;SDS011;7917;50.818;6.972;2023-05-07T10:32:05;3.72;;;2.15;;
15635;SDS011;7917;50.818;6.972;2023-05-07T10:34:54;2.88;;;2.00;;
15635;SDS011;7917;50.818;6.972;2023-05-07T10:37:30;3.10;;;1.85;;
15635;SDS011;7917;50.818;6.972;2023-05-07T10:39:57;2.25;;;2.03;;
15635;SDS011;7917;50.818;6.972;2023-05-07T10:42:25;3.25;;;1.98;;
15635;SDS011;7917;50.818;6.972;2023-05-07T10:44:52;3.20;;;1.70;;
15635;SDS011;7917;50.818;6.972;2023-05-07T10:47:18;4.38;;;1.95;;
15635;SDS011;7917;50.818;6.972;2023-05-07T10:58:53;7.68;;;2.25;;
15635;SDS011;7917;50.818;6.972;2023-05-07T11:04:20;3.65;;;2.22;;
15635;SDS011;7917;50.818;6.972;2023-05-07T11:10:06;2.72;;;1.83;;
15635;SDS011;7917;50.818;6.972;2023-05-07T11:15:36;4.63;;;1.92;;
15635;SDS011;7917;50.818;6.972;2023-05-07T11:18:04;3.05;;;1.85;;
15635;SDS011;7917;50.818;6.972;2023-05-07T11:20:55;4.30;;;1.95;;
15635;SDS011;7917;50.818;6.972;2023-05-07T11:26:25;2.40;;;1.60;;
15635;SDS011;7917;50.818;6.972;2023-05-07T11:28:53;3.72;;;1.58;;
15635;SDS011;7917;50.818;6.972;2023-05-07T11:31:22;6.00;;;1.77;;
15635;SDS011;7917;50.818;6.972;2023-05-07T11:33:51;3.38;;;1.90;;
15635;SDS011;7917;50.818;6.972;2023-05-07T11:36:19;1.55;;;1.33;;
15635;SDS011;7917;50.818;6.972;2023-05-07T11:38:46;2.45;;;1.55;;
15635;SDS011;7917;50.818;6.972;2023-05-07T11:41:13;3.75;;;1.60;;
15635;SDS011;7917;50.818;6.972;2023-05-07T11:43:53;4.57;;;1.80;;
15635;SDS011;7917;50.818;6.972;2023-05-07T11:46:26;2.97;;;1.50;;
15635;SDS011;7917;50.818;6.972;2023-05-07T11:48:53;3.97;;;1.80;;
15635;SDS011;7917;50.818;6.972;2023-05-07T11:51:20;2.35;;;1.50;;
15635;SDS011;7917;50.818;6.972;2023-05-07T11:53:48;4.10;;;1.35;;
15635;SDS011;7917;50.818;6.972;2023-05-07T11:56:16;2.08;;;1.10;;
15635;SDS011;7917;50.818;6.972;2023-05-07T11:58:44;4.30;;;1.20;;
15635;SDS011;7917;50.818;6.972;2023-05-07T12:01:15;4.55;;;1.30;;
15635;SDS011;7917;50.818;6.972;2023-05-07T12:03:46;3.65;;;1.67;;
15635;SDS011;7917;50.818;6.972;2023-05-07T12:06:13;4.70;;;1.33;;
15635;SDS011;7917;50.818;6.972;2023-05-07T12:08:41;2.75;;;1.60;;
15635;SDS011;7917;50.818;6.972;2023-05-07T12:11:09;4.38;;;1.50;;
15635;SDS011;7917;50.818;6.972;2023-05-07T12:13:40;6.13;;;1.60;;
15635;SDS011;7917;50.818;6.972;2023-05-07T12:16:07;3.30;;;1.50;;
15635;SDS011;7917;50.818;6.972;2023-05-07T12:18:35;8.75;;;1.27;;
15635;SDS011;7917;50.818;6.972;2023-05-07T12:21:04;1.70;;;1.20;;
15635;SDS011;7917;50.818;6.972;2023-05-07T12:23:33;7.22;;;1.92;;
15635;SDS011;7917;50.818;6.972;2023-05-07T12:26:03;5.38;;;1.88;;
15635;SDS011;7917;50.818;6.972;2023-05-07T12:28:31;4.80;;;1.55;;
15635;SDS011;7917;50.818;6.972;2023-05-07T12:31:02;2.67;;;1.45;;
15635;SDS011;7917;50.818;6.972;2023-05-07T12:33:30;1.73;;;1.30;;
15635;SDS011;7917;50.818;6.972;2023-05-07T12:35:58;2.25;;;1.60;;
15635;SDS011;7917;50.818;6.972;2023-05-07T12:38:32;4.22;;;2.30;;
15635;SDS011;7917;50.818;6.972;2023-05-07T12:41:05;3.72;;;2.20;;
15635;SDS011;7917;50.818;6.972;2023-05-07T12:43:32;3.50;;;2.25;;
15635;SDS011;7917;50.818;6.972;2023-05-07T12:46:00;4.07;;;2.22;;
15635;SDS011;7917;50.818;6.972;2023-05-07T12:48:29;2.70;;;1.50;;
15635;SDS011;7917;50.818;6.972;2023-05-07T12:50:57;3.05;;;2.40;;
15635;SDS011;7917;50.818;6.972;2023-05-07T12:53:25;2.55;;;1.90;;
15635;SDS011;7917;50.818;6.972;2023-05-07T12:55:55;2.65;;;1.80;;
15635;SDS011;7917;50.818;6.972;2023-05-07T12:58:24;4.38;;;2.17;;
15635;SDS011;7917;50.818;6.972;2023-05-07T13:00:52;5.35;;;2.17;;
15635;SDS011;7917;50.818;6.972;2023-05-07T13:03:23;3.17;;;2.30;;
15635;SDS011;7917;50.818;6.972;2023-05-07T13:05:51;7.05;;;2.83;;
15635;SDS011;7917;50.818;6.972;2023-05-07T13:08:23;2.80;;;2.40;;
15635;SDS011;7917;50.818;6.972;2023-05-07T13:10:51;3.42;;;2.50;;
15635;SDS011;7917;50.818;6.972;2023-05-07T13:13:19;3.33;;;2.53;;
15635;SDS011;7917;50.818;6.972;2023-05-07T13:15:46;3.08;;;2.25;;
15635;SDS011;7917;50.818;6.972;2023-05-07T13:18:13;4.32;;;2.25;;
15635;SDS011;7917;50.818;6.972;2023-05-07T13:20:40;4.63;;;2.40;;
15635;SDS011;7917;50.818;6.972;2023-05-07T13:23:07;5.25;;;2.90;;
15635;SDS011;7917;50.818;6.972;2023-05-07T13:25:33;3.60;;;2.58;;
15635;SDS011;7917;50.818;6.972;2023-05-07T13:28:00;5.75;;;3.08;;
15635;SDS011;7917;50.818;6.972;2023-05-07T13:30:28;4.68;;;2.40;;
15635;SDS011;7917;50.818;6.972;2023-05-07T13:32:55;3.92;;;2.72;;
15635;SDS011;7917;50.818;6.972;2023-05-07T13:35:25;3.67;;;2.15;;
15635;SDS011;7917;50.818;6.972;2023-05-07T13:37:52;2.28;;;1.90;;
15635;SDS011;7917;50.818;6.972;2023-05-07T13:40:20;2.78;;;1.95;;
15635;SDS011;7917;50.818;6.972;2023-05-07T13:42:47;4.32;;;2.28;;
15635;SDS011;7917;50.818;6.972;2023-05-07T13:45:14;7.65;;;2.17;;
15635;SDS011;7917;50.818;6.972;2023-05-07T13:47:42;4.30;;;2.00;;
15635;SDS011;7917;50.818;6.972;2023-05-07T13:50:09;3.55;;;3.20;;
15635;SDS011;7917;50.818;6.972;2023-05-07T13:52:39;6.97;;;4.13;;
15635;SDS011;7917;50.818;6.972;2023-05-07T13:55:08;6.10;;;3.33;;
15635;SDS011;7917;50.818;6.972;2023-05-07T13:57:36;4.65;;;3.30;;
15635;SDS011;7917;50.818;6.972;2023-05-07T14:00:03;4.10;;;2.97;;
15635;SDS011;7917;50.818;6.972;2023-05-07T14:02:31;6.18;;;3.30;;
15635;SDS011;7917;50.818;6.972;2023-05-07T14:04:58;3.15;;;2.85;;
15635;SDS011;7917;50.818;6.972;2023-05-07T14:07:25;8.85;;;2.83;;
15635;SDS011;7917;50.818;6.972;2023-05-07T14:09:52;3.70;;;3.15;;
15635;SDS011;7917;50.818;6.972;2023-05-07T14:12:19;3.83;;;3.08;;
15635;SDS011;7917;50.818;6.972;2023-05-07T14:14:46;3.78;;;3.15;;
15635;SDS011;7917;50.818;6.972;2023-05-07T14:17:15;3.75;;;3.45;;
15635;SDS011;7917;50.818;6.972;2023-05-07T14:19:42;4.82;;;3.40;;
15635;SDS011;7917;50.818;6.972;2023-05-07T14:22:13;3.70;;;3.15;;
15635;SDS011;7917;50.818;6.972;2023-05-07T14:24:40;4.63;;;3.08;;
15635;SDS011;7917;50.818;6.972;2023-05-07T14:27:07;4.82;;;3.42;;
15635;SDS011;7917;50.818;6.972;2023-05-07T14:29:36;3.53;;;3.08;;
15635;SDS011;7917;50.818;6.972;2023-05-07T14:32:03;5.13;;;3.30;;
15635;SDS011;7917;50.818;6.972;2023-05-07T14:34:31;5.43;;;3.63;;
15635;SDS011;7917;50.818;6.972;2023-05-07T14:36:59;5.75;;;4.53;;
15635;SDS011;7917;50.818;6.972;2023-05-07T14:39:32;7.45;;;4.97;;
15635;SDS011;7917;50.818;6.972;2023-05-07T14:41:59;7.60;;;4.75;;
15635;SDS011;7917;50.818;6.972;2023-05-07T14:44:25;6.13;;;5.40;;
15635;SDS011;7917;50.818;6.972;2023-05-07T14:46:52;6.60;;;5.63;;
15635;SDS011;7917;50.818;6.972;2023-05-07T14:49:19;8.57;;;6.57;;
15635;SDS011;7917;50.818;6.972;2023-05-07T14:51:46;7.13;;;6.20;;
15635;SDS011;7917;50.818;6.972;2023-05-07T14:54:14;6.97;;;5.68;;
15635;SDS011;7917;50.818;6.972;2023-05-07T14:56:42;9.85;;;5.93;;
15635;SDS011;7917;50.818;6.972;2023-05-07T14:59:09;5.93;;;5.30;;
15635;SDS011;7917;50.818;6.972;2023-05-07T15:01:36;6.25;;;4.95;;
15635;SDS011;7917;50.818;6.972;2023-05-07T15:04:03;5.40;;;4.00;;
15635;SDS011;7917;50.818;6.972;2023-05-07T15:06:30;5.90;;;4.30;;
15635;SDS011;7917;50.818;6.972;2023-05-07T15:08:57;5.35;;;4.60;;
15635;SDS011;7917;50.818;6.972;2023-05-07T15:11:24;6.63;;;4.03;;
15635;SDS011;7917;50.818;6.972;2023-05-07T15:13:52;5.78;;;4.05;;
15635;SDS011;7917;50.818;6.972;2023-05-07T15:16:19;7.78;;;4.78;;
15635;SDS011;7917;50.818;6.972;2023-05-07T15:18:46;5.00;;;3.80;;
15635;SDS011;7917;50.818;6.972;2023-05-07T15:21:14;7.05;;;3.67;;
15635;SDS011;7917;50.818;6.972;2023-05-07T15:23:41;8.38;;;4.63;;
15635;SDS011;7917;50.818;6.972;2023-05-07T15:26:09;7.30;;;4.63;;
15635;SDS011;7917;50.818;6.972;2023-05-07T15:28:36;4.55;;;3.65;;